sensor_id;sensor_type;location;lat;lon;timestamp;temperature;humidity
14097;DHT22;7125;48.106;11.544;2024-03-25T00:00:19;3.50;99.90
14097;DHT22;7125;48.106;11.544;2024-03-25T00:02:46;3.60;99.90
14097;DHT22;7125;48.106;11.544;2024-03-25T00:05:13;3.60;99.90
14097;DHT22;7125;48.106;11.544;2024-03-25T00:07:45;3.60;99.90
14097;DHT22;7125;48.106;11.544;2024-03-25T00:10:13;3.60;99.90
14097;DHT22;7125;48.106;11.544;2024-03-25T00:12:39;3.60;99.90
14097;DHT22;7125;48.106;11.544;2024-03-25T00:15:07;3.60;99.90
14097;DHT22;7125;48.106;11.544;2024-03-25T00:17:34;3.60;99.90
14097;DHT22;7125;48.106;11.544;2024-03-25T00:20:02;3.60;99.90
14097;DHT22;7125;48.106;11.544;2024-03-25T00:22:31;3.60;99.90
14097;DHT22;7125;48.106;11.544;2024-03-25T00:25:00;3.60;99.90
14097;DHT22;7125;48.106;11.544;2024-03-25T00:27:26;3.60;99.90
14097;DHT22;7125;48.106;11.544;2024-03-25T00:29:55;3.50;99.90
14097;DHT22;7125;48.106;11.544;2024-03-25T00:32:21;3.50;99.90
14097;DHT22;7125;48.106;11.544;2024-03-25T00:34:48;3.50;99.90
14097;DHT22;7125;48.106;11.544;2024-03-25T00:37:15;3.50;99.90
14097;DHT22;7125;48.106;11.544;2024-03-25T00:39:42;3.60;99.90
14097;DHT22;7125;48.106;11.544;2024-03-25T00:42:10;3.60;99.90
14097;DHT22;7125;48.106;11.544;2024-03-25T00:44:39;3.60;99.90
14097;DHT22;7125;48.106;11.544;2024-03-25T00:47:05;3.50;99.90
14097;DHT22;7125;48.106;11.544;2024-03-25T00:49:33;3.50;99.90
14097;DHT22;7125;48.106;11.544;2024-03-25T00:51:59;3.50;99.90
14097;DHT22;7125;48.106;11.544;2024-03-25T00:54:27;3.60;99.90
14097;DHT22;7125;48.106;11.544;2024-03-25T00:56:54;3.60;99.90
14097;DHT22;7125;48.106;11.544;2024-03-25T00:59:23;3.60;99.90
14097;DHT22;7125;48.106;11.544;2024-03-25T01:01:51;3.60;99.90
14097;DHT22;7125;48.106;11.544;2024-03-25T01:04:19;3.50;99.90
14097;DHT22;7125;48.106;11.544;2024-03-25T01:06:45;3.50;99.90
14097;DHT22;7125;48.106;11.544;2024-03-25T01:09:14;3.40;99.90
14097;DHT22;7125;48.106;11.544;2024-03-25T01:11:41;3.40;99.90
14097;DHT22;7125;48.106;11.544;2024-03-25T01:14:09;3.30;99.90
14097;DHT22;7125;48.106;11.544;2024-03-25T01:16:36;3.30;99.90
14097;DHT22;7125;48.106;11.544;2024-03-25T01:19:04;3.30;99.90
14097;DHT22;7125;48.106;11.544;2024-03-25T01:21:30;3.30;99.90
14097;DHT22;7125;48.106;11.544;2024-03-25T01:23:58;3.30;99.90
14097;DHT22;7125;48.106;11.544;2024-03-25T01:26:24;3.30;99.90
14097;DHT22;7125;48.106;11.544;2024-03-25T01:28:51;3.30;99.90
14097;DHT22;7125;48.106;11.544;2024-03-25T01:31:18;3.20;99.90
14097;DHT22;7125;48.106;11.544;2024-03-25T01:33:47;3.20;99.90
14097;DHT22;7125;48.106;11.544;2024-03-25T01:36:13;3.30;99.90
14097;DHT22;7125;48.106;11.544;2024-03-25T01:38:43;3.30;99.90
14097;DHT22;7125;48.106;11.544;2024-03-25T01:41:10;3.30;99.90
14097;DHT22;7125;48.106;11.544;2024-03-25T01:43:38;3.40;99.90
14097;DHT22;7125;48.106;11.544;2024-03-25T01:46:05;3.40;99.90
14097;DHT22;7125;48.106;11.544;2024-03-25T01:48:34;3.40;99.90
14097;DHT22;7125;48.106;11.544;2024-03-25T01:51:02;3.40;99.90
14097;DHT22;7125;48.106;11.544;2024-03-25T01:53:31;3.40;99.90
14097;DHT22;7125;48.106;11.544;2024-03-25T01:55:58;3.40;99.90
14097;DHT22;7125;48.106;11.544;2024-03-25T01:58:26;3.40;99.90
14097;DHT22;7125;48.106;11.544;2024-03-25T02:00:53;3.40;99.90
14097;DHT22;7125;48.106;11.544;2024-03-25T02:03:22;3.40;99.90
14097;DHT22;7125;48.106;11.544;2024-03-25T02:05:52;3.40;99.90
14097;DHT22;7125;48.106;11.544;2024-03-25T02:08:22;3.40;99.90
14097;DHT22;7125;48.106;11.544;2024-03-25T02:10:49;3.30;99.90
14097;DHT22;7125;48.106;11.544;2024-03-25T02:13:17;3.30;99.90
14097;DHT22;7125;48.106;11.544;2024-03-25T02:15:43;3.40;99.90
14097;DHT22;7125;48.106;11.544;2024-03-25T02:18:10;3.40;99.90
14097;DHT22;7125;48.106;11.544;2024-03-25T02:20:37;3.30;99.90
14097;DHT22;7125;48.106;11.544;2024-03-25T02:23:04;3.40;99.90
14097;DHT22;7125;48.106;11.544;2024-03-25T02:25:33;3.40;99.90
14097;DHT22;7125;48.106;11.544;2024-03-25T02:28:03;3.50;99.90
14097;DHT22;7125;48.106;11.544;2024-03-25T02:30:29;3.40;99.90
14097;DHT22;7125;48.106;11.544;2024-03-25T02:32:56;3.40;99.90
14097;DHT22;7125;48.106;11.544;2024-03-25T02:35:25;3.30;99.90
14097;DHT22;7125;48.106;11.544;2024-03-25T02:37:53;3.30;99.90
14097;DHT22;7125;48.106;11.544;2024-03-25T02:40:20;3.40;99.90
14097;DHT22;7125;48.106;11.544;2024-03-25T02:42:49;3.30;99.90
14097;DHT22;7125;48.106;11.544;2024-03-25T02:45:17;3.30;99.90
14097;DHT22;7125;48.106;11.544;2024-03-25T02:47:47;3.40;99.90
14097;DHT22;7125;48.106;11.544;2024-03-25T02:50:14;3.40;99.90
14097;DHT22;7125;48.106;11.544;2024-03-25T02:52:41;3.50;99.90
14097;DHT22;7125;48.106;11.544;2024-03-25T02:55:07;3.50;99.90
14097;DHT22;7125;48.106;11.544;2024-03-25T02:57:35;3.50;99.90
14097;DHT22;7125;48.106;11.544;2024-03-25T03:00:01;3.60;99.90
14097;DHT22;7125;48.106;11.544;2024-03-25T03:02:32;3.50;99.90
14097;DHT22;7125;48.106;11.544;2024-03-25T03:04:58;3.60;99.90
14097;DHT22;7125;48.106;11.544;2024-03-25T03:07:26;3.60;99.90
14097;DHT22;7125;48.106;11.544;2024-03-25T03:09:53;3.60;99.90
14097;DHT22;7125;48.106;11.544;2024-03-25T03:12:20;3.50;99.90
14097;DHT22;7125;48.106;11.544;2024-03-25T03:14:47;3.50;99.90
14097;DHT22;7125;48.106;11.544;2024-03-25T03:17:14;3.50;99.90
14097;DHT22;7125;48.106;11.544;2024-03-25T03:19:43;3.40;99.90
14097;DHT22;7125;48.106;11.544;2024-03-25T03:22:14;3.40;99.90
14097;DHT22;7125;48.106;11.544;2024-03-25T03:24:40;3.40;99.90
14097;DHT22;7125;48.106;11.544;2024-03-25T03:27:07;3.40;99.90
14097;DHT22;7125;48.106;11.544;2024-03-25T03:29:33;3.40;99.90
14097;DHT22;7125;48.106;11.544;2024-03-25T03:32:01;3.40;99.90
14097;DHT22;7125;48.106;11.544;2024-03-25T03:34:28;3.40;99.90
14097;DHT22;7125;48.106;11.544;2024-03-25T03:36:59;3.50;99.90
14097;DHT22;7125;48.106;11.544;2024-03-25T03:39:26;3.50;99.90
14097;DHT22;7125;48.106;11.544;2024-03-25T03:41:54;3.50;99.90
14097;DHT22;7125;48.106;11.544;2024-03-25T03:44:21;3.40;99.90
14097;DHT22;7125;48.106;11.544;2024-03-25T03:46:49;3.40;99.90
14097;DHT22;7125;48.106;11.544;2024-03-25T03:49:15;3.40;99.90
14097;DHT22;7125;48.106;11.544;2024-03-25T03:51:45;3.30;99.90
14097;DHT22;7125;48.106;11.544;2024-03-25T03:54:13;3.30;99.90
14097;DHT22;7125;48.106;11.544;2024-03-25T03:56:40;3.20;99.90
14097;DHT22;7125;48.106;11.544;2024-03-25T03:59:07;3.10;99.90
14097;DHT22;7125;48.106;11.544;2024-03-25T04:01:34;3.10;99.90
14097;DHT22;7125;48.106;11.544;2024-03-25T04:04:01;3.00;99.90
14097;DHT22;7125;48.106;11.544;2024-03-25T04:06:29;3.00;99.90
14097;DHT22;7125;48.106;11.544;2024-03-25T04:08:56;2.90;99.90
14097;DHT22;7125;48.106;11.544;2024-03-25T04:11:25;2.90;99.90
14097;DHT22;7125;48.106;11.544;2024-03-25T04:13:51;2.80;99.90
14097;DHT22;7125;48.106;11.544;2024-03-25T04:16:18;2.70;99.90
14097;DHT22;7125;48.106;11.544;2024-03-25T04:18:45;2.60;99.90
14097;DHT22;7125;48.106;11.544;2024-03-25T04:21:15;2.60;99.90
14097;DHT22;7125;48.106;11.544;2024-03-25T04:23:41;2.50;99.90
14097;DHT22;7125;48.106;11.544;2024-03-25T04:26:10;2.50;99.90
14097;DHT22;7125;48.106;11.544;2024-03-25T04:28:38;2.50;99.90
14097;DHT22;7125;48.106;11.544;2024-03-25T04:31:07;2.60;99.90
14097;DHT22;7125;48.106;11.544;2024-03-25T04:33:34;2.60;99.90
14097;DHT22;7125;48.106;11.544;2024-03-25T04:36:02;2.60;99.90
14097;DHT22;7125;48.106;11.544;2024-03-25T04:38:29;2.50;99.90
14097;DHT22;7125;48.106;11.544;2024-03-25T04:40:58;2.50;99.90
14097;DHT22;7125;48.106;11.544;2024-03-25T04:43:24;2.50;99.90
14097;DHT22;7125;48.106;11.544;2024-03-25T04:45:51;2.50;99.90
14097;DHT22;7125;48.106;11.544;2024-03-25T04:48:18;2.50;99.90
14097;DHT22;7125;48.106;11.544;2024-03-25T04:50:45;2.50;99.90
14097;DHT22;7125;48.106;11.544;2024-03-25T04:53:13;2.50;99.90
14097;DHT22;7125;48.106;11.544;2024-03-25T04:55:40;2.50;99.90
14097;DHT22;7125;48.106;11.544;2024-03-25T04:58:07;2.50;99.90
14097;DHT22;7125;48.106;11.544;2024-03-25T05:00:33;2.40;99.90
14097;DHT22;7125;48.106;11.544;2024-03-25T05:03:01;2.40;99.90
14097;DHT22;7125;48.106;11.544;2024-03-25T05:05:27;2.40;99.90
14097;DHT22;7125;48.106;11.544;2024-03-25T05:07:53;2.40;99.90
14097;DHT22;7125;48.106;11.544;2024-03-25T05:10:20;2.40;99.90
14097;DHT22;7125;48.106;11.544;2024-03-25T05:12:46;2.30;99.90
14097;DHT22;7125;48.106;11.544;2024-03-25T05:15:13;2.30;99.90
14097;DHT22;7125;48.106;11.544;2024-03-25T05:17:39;2.30;99.90
14097;DHT22;7125;48.106;11.544;2024-03-25T05:20:09;2.30;99.90
14097;DHT22;7125;48.106;11.544;2024-03-25T05:22:38;2.40;99.90
14097;DHT22;7125;48.106;11.544;2024-03-25T05:25:04;2.40;99.90
14097;DHT22;7125;48.106;11.544;2024-03-25T05:27:31;2.40;99.90
14097;DHT22;7125;48.106;11.544;2024-03-25T05:29:57;2.40;99.90
14097;DHT22;7125;48.106;11.544;2024-03-25T05:32:24;2.50;99.90
14097;DHT22;7125;48.106;11.544;2024-03-25T05:34:50;2.50;99.90
14097;DHT22;7125;48.106;11.544;2024-03-25T05:37:18;2.40;99.90
14097;DHT22;7125;48.106;11.544;2024-03-25T05:39:45;2.50;99.90
14097;DHT22;7125;48.106;11.544;2024-03-25T05:42:11;2.50;99.90
14097;DHT22;7125;48.106;11.544;2024-03-25T05:44:39;2.40;99.90
14097;DHT22;7125;48.106;11.544;2024-03-25T05:47:07;2.40;99.90
14097;DHT22;7125;48.106;11.544;2024-03-25T05:49:34;2.50;99.90
14097;DHT22;7125;48.106;11.544;2024-03-25T05:52:00;2.50;99.90
14097;DHT22;7125;48.106;11.544;2024-03-25T05:54:28;2.50;99.90
14097;DHT22;7125;48.106;11.544;2024-03-25T05:56:54;2.60;99.90
14097;DHT22;7125;48.106;11.544;2024-03-25T05:59:21;2.70;99.90
14097;DHT22;7125;48.106;11.544;2024-03-25T06:01:47;2.80;99.90
14097;DHT22;7125;48.106;11.544;2024-03-25T06:04:14;2.90;99.90
14097;DHT22;7125;48.106;11.544;2024-03-25T06:06:40;2.90;99.90
14097;DHT22;7125;48.106;11.544;2024-03-25T06:09:07;2.90;99.90
14097;DHT22;7125;48.106;11.544;2024-03-25T06:11:35;2.90;99.90
14097;DHT22;7125;48.106;11.544;2024-03-25T06:14:01;2.90;99.90
14097;DHT22;7125;48.106;11.544;2024-03-25T06:16:27;2.90;99.90
14097;DHT22;7125;48.106;11.544;2024-03-25T06:18:54;2.90;99.90
14097;DHT22;7125;48.106;11.544;2024-03-25T06:21:20;3.00;99.90
14097;DHT22;7125;48.106;11.544;2024-03-25T06:23:46;3.10;99.90
14097;DHT22;7125;48.106;11.544;2024-03-25T06:26:12;3.10;99.90
14097;DHT22;7125;48.106;11.544;2024-03-25T06:28:43;3.20;99.90
14097;DHT22;7125;48.106;11.544;2024-03-25T06:31:11;3.30;99.90
14097;DHT22;7125;48.106;11.544;2024-03-25T06:33:56;3.30;99.90
14097;DHT22;7125;48.106;11.544;2024-03-25T06:36:40;3.50;99.90
14097;DHT22;7125;48.106;11.544;2024-03-25T06:39:06;3.60;99.90
14097;DHT22;7125;48.106;11.544;2024-03-25T06:41:33;3.70;99.90
14097;DHT22;7125;48.106;11.544;2024-03-25T06:44:01;3.80;99.90
14097;DHT22;7125;48.106;11.544;2024-03-25T06:46:27;3.90;99.90
14097;DHT22;7125;48.106;11.544;2024-03-25T06:48:54;4.00;99.90
14097;DHT22;7125;48.106;11.544;2024-03-25T06:51:21;4.00;99.90
14097;DHT22;7125;48.106;11.544;2024-03-25T06:53:48;4.10;99.90
14097;DHT22;7125;48.106;11.544;2024-03-25T06:56:15;4.20;99.90
14097;DHT22;7125;48.106;11.544;2024-03-25T06:58:41;4.20;99.90
14097;DHT22;7125;48.106;11.544;2024-03-25T07:01:10;4.30;99.90
14097;DHT22;7125;48.106;11.544;2024-03-25T07:03:36;4.40;99.90
14097;DHT22;7125;48.106;11.544;2024-03-25T07:06:04;4.50;99.90
14097;DHT22;7125;48.106;11.544;2024-03-25T07:08:30;4.50;99.90
14097;DHT22;7125;48.106;11.544;2024-03-25T07:10:57;4.60;99.90
14097;DHT22;7125;48.106;11.544;2024-03-25T07:13:24;4.60;99.90
14097;DHT22;7125;48.106;11.544;2024-03-25T07:15:51;4.70;99.90
14097;DHT22;7125;48.106;11.544;2024-03-25T07:18:19;4.80;99.90
14097;DHT22;7125;48.106;11.544;2024-03-25T07:20:45;4.90;99.90
14097;DHT22;7125;48.106;11.544;2024-03-25T07:23:13;5.00;99.90
14097;DHT22;7125;48.106;11.544;2024-03-25T07:25:39;5.10;99.90
14097;DHT22;7125;48.106;11.544;2024-03-25T07:28:07;5.10;99.90
14097;DHT22;7125;48.106;11.544;2024-03-25T07:30:34;5.20;99.90
14097;DHT22;7125;48.106;11.544;2024-03-25T07:33:00;5.20;99.90
14097;DHT22;7125;48.106;11.544;2024-03-25T07:35:29;5.30;99.90
14097;DHT22;7125;48.106;11.544;2024-03-25T07:37:56;5.40;99.90
14097;DHT22;7125;48.106;11.544;2024-03-25T07:40:22;5.40;99.90
14097;DHT22;7125;48.106;11.544;2024-03-25T07:42:51;5.40;99.90
14097;DHT22;7125;48.106;11.544;2024-03-25T07:45:17;5.50;99.90
14097;DHT22;7125;48.106;11.544;2024-03-25T07:47:43;5.50;99.90
14097;DHT22;7125;48.106;11.544;2024-03-25T07:50:11;5.50;99.90
14097;DHT22;7125;48.106;11.544;2024-03-25T07:52:39;5.60;99.90
14097;DHT22;7125;48.106;11.544;2024-03-25T07:55:08;5.60;99.90
14097;DHT22;7125;48.106;11.544;2024-03-25T07:57:34;5.70;99.90
14097;DHT22;7125;48.106;11.544;2024-03-25T08:00:00;5.80;99.90
14097;DHT22;7125;48.106;11.544;2024-03-25T08:02:29;5.80;99.90
14097;DHT22;7125;48.106;11.544;2024-03-25T08:04:55;5.90;99.90
14097;DHT22;7125;48.106;11.544;2024-03-25T08:07:22;6.00;99.90
14097;DHT22;7125;48.106;11.544;2024-03-25T08:09:51;6.00;99.90
14097;DHT22;7125;48.106;11.544;2024-03-25T08:12:17;6.10;99.90
14097;DHT22;7125;48.106;11.544;2024-03-25T08:14:45;6.20;99.90
14097;DHT22;7125;48.106;11.544;2024-03-25T08:17:11;6.30;99.90
14097;DHT22;7125;48.106;11.544;2024-03-25T08:19:38;6.40;99.90
14097;DHT22;7125;48.106;11.544;2024-03-25T08:22:04;6.50;99.90
14097;DHT22;7125;48.106;11.544;2024-03-25T08:24:32;6.50;99.90
14097;DHT22;7125;48.106;11.544;2024-03-25T08:27:03;6.60;99.90
14097;DHT22;7125;48.106;11.544;2024-03-25T08:29:29;6.60;99.90
14097;DHT22;7125;48.106;11.544;2024-03-25T08:31:55;6.70;99.90
14097;DHT22;7125;48.106;11.544;2024-03-25T08:34:21;6.80;99.90
14097;DHT22;7125;48.106;11.544;2024-03-25T08:36:48;6.80;99.90
14097;DHT22;7125;48.106;11.544;2024-03-25T08:39:14;6.90;99.90
14097;DHT22;7125;48.106;11.544;2024-03-25T08:41:41;6.90;99.90
14097;DHT22;7125;48.106;11.544;2024-03-25T08:44:09;7.00;99.90
14097;DHT22;7125;48.106;11.544;2024-03-25T08:46:35;7.10;99.90
14097;DHT22;7125;48.106;11.544;2024-03-25T08:49:02;7.10;99.90
14097;DHT22;7125;48.106;11.544;2024-03-25T08:51:28;7.20;99.90
14097;DHT22;7125;48.106;11.544;2024-03-25T08:53:54;7.30;99.90
14097;DHT22;7125;48.106;11.544;2024-03-25T08:56:21;7.40;99.90
14097;DHT22;7125;48.106;11.544;2024-03-25T08:58:47;7.50;99.90
14097;DHT22;7125;48.106;11.544;2024-03-25T09:01:15;7.50;99.90
14097;DHT22;7125;48.106;11.544;2024-03-25T09:03:41;7.50;99.90
14097;DHT22;7125;48.106;11.544;2024-03-25T09:06:08;7.50;99.90
14097;DHT22;7125;48.106;11.544;2024-03-25T09:08:34;7.60;99.90
14097;DHT22;7125;48.106;11.544;2024-03-25T09:11:00;7.70;99.90
14097;DHT22;7125;48.106;11.544;2024-03-25T09:13:33;7.80;99.90
14097;DHT22;7125;48.106;11.544;2024-03-25T09:15:59;7.80;99.90
14097;DHT22;7125;48.106;11.544;2024-03-25T09:18:28;7.80;99.90
14097;DHT22;7125;48.106;11.544;2024-03-25T09:20:55;8.00;99.90
14097;DHT22;7125;48.106;11.544;2024-03-25T09:23:23;8.10;99.20
14097;DHT22;7125;48.106;11.544;2024-03-25T09:25:53;8.30;99.30
14097;DHT22;7125;48.106;11.544;2024-03-25T09:28:22;8.50;99.30
14097;DHT22;7125;48.106;11.544;2024-03-25T09:30:49;8.70;98.50
14097;DHT22;7125;48.106;11.544;2024-03-25T09:33:15;8.90;97.40
14097;DHT22;7125;48.106;11.544;2024-03-25T09:35:45;9.10;97.30
14097;DHT22;7125;48.106;11.544;2024-03-25T09:38:14;9.30;94.70
14097;DHT22;7125;48.106;11.544;2024-03-25T09:40:41;9.40;94.60
14097;DHT22;7125;48.106;11.544;2024-03-25T09:43:12;9.40;94.70
14097;DHT22;7125;48.106;11.544;2024-03-25T09:45:41;9.50;95.10
14097;DHT22;7125;48.106;11.544;2024-03-25T09:48:10;9.60;94.40
14097;DHT22;7125;48.106;11.544;2024-03-25T09:50:39;9.70;94.00
14097;DHT22;7125;48.106;11.544;2024-03-25T09:53:07;9.70;93.50
14097;DHT22;7125;48.106;11.544;2024-03-25T09:55:34;9.80;91.50
14097;DHT22;7125;48.106;11.544;2024-03-25T09:58:01;9.70;92.40
14097;DHT22;7125;48.106;11.544;2024-03-25T10:00:29;9.60;92.50
14097;DHT22;7125;48.106;11.544;2024-03-25T10:02:57;9.50;91.40
14097;DHT22;7125;48.106;11.544;2024-03-25T10:05:24;9.40;91.90
14097;DHT22;7125;48.106;11.544;2024-03-25T10:07:52;9.40;91.20
14097;DHT22;7125;48.106;11.544;2024-03-25T10:10:35;9.30;91.00
14097;DHT22;7125;48.106;11.544;2024-03-25T10:13:09;9.30;91.30
14097;DHT22;7125;48.106;11.544;2024-03-25T10:15:40;9.50;90.50
14097;DHT22;7125;48.106;11.544;2024-03-25T10:18:14;9.50;91.20
14097;DHT22;7125;48.106;11.544;2024-03-25T10:20:48;9.60;90.60
14097;DHT22;7125;48.106;11.544;2024-03-25T10:23:15;9.60;87.70
14097;DHT22;7125;48.106;11.544;2024-03-25T10:25:48;9.60;88.10
14097;DHT22;7125;48.106;11.544;2024-03-25T10:28:16;9.60;87.90
14097;DHT22;7125;48.106;11.544;2024-03-25T10:30:42;9.60;90.00
14097;DHT22;7125;48.106;11.544;2024-03-25T10:33:09;9.50;88.40
14097;DHT22;7125;48.106;11.544;2024-03-25T10:35:39;9.40;85.40
14097;DHT22;7125;48.106;11.544;2024-03-25T10:38:11;9.40;87.30
14097;DHT22;7125;48.106;11.544;2024-03-25T10:40:46;9.50;87.90
14097;DHT22;7125;48.106;11.544;2024-03-25T10:43:15;9.60;88.30
14097;DHT22;7125;48.106;11.544;2024-03-25T10:45:45;9.50;86.20
14097;DHT22;7125;48.106;11.544;2024-03-25T10:48:15;9.50;86.30
14097;DHT22;7125;48.106;11.544;2024-03-25T10:50:46;9.30;83.70
14097;DHT22;7125;48.106;11.544;2024-03-25T10:53:22;9.20;82.30
14097;DHT22;7125;48.106;11.544;2024-03-25T10:55:56;9.20;82.80
14097;DHT22;7125;48.106;11.544;2024-03-25T10:58:23;9.20;84.40
14097;DHT22;7125;48.106;11.544;2024-03-25T11:00:52;9.20;81.40
14097;DHT22;7125;48.106;11.544;2024-03-25T11:03:19;9.30;84.60
14097;DHT22;7125;48.106;11.544;2024-03-25T11:08:31;9.50;84.20
14097;DHT22;7125;48.106;11.544;2024-03-25T11:11:22;9.60;82.50
14097;DHT22;7125;48.106;11.544;2024-03-25T11:13:50;9.80;81.80
14097;DHT22;7125;48.106;11.544;2024-03-25T11:16:26;9.90;78.30
14097;DHT22;7125;48.106;11.544;2024-03-25T11:19:02;10.00;77.50
14097;DHT22;7125;48.106;11.544;2024-03-25T11:21:32;10.10;77.40
14097;DHT22;7125;48.106;11.544;2024-03-25T11:24:06;10.00;76.30
14097;DHT22;7125;48.106;11.544;2024-03-25T11:26:35;10.00;77.40
14097;DHT22;7125;48.106;11.544;2024-03-25T11:29:06;10.00;77.30
14097;DHT22;7125;48.106;11.544;2024-03-25T11:31:33;9.90;77.70
14097;DHT22;7125;48.106;11.544;2024-03-25T11:34:03;9.80;77.60
14097;DHT22;7125;48.106;11.544;2024-03-25T11:36:31;9.80;76.90
14097;DHT22;7125;48.106;11.544;2024-03-25T11:38:58;9.70;77.10
14097;DHT22;7125;48.106;11.544;2024-03-25T11:41:25;9.60;78.00
14097;DHT22;7125;48.106;11.544;2024-03-25T11:43:54;9.60;79.40
14097;DHT22;7125;48.106;11.544;2024-03-25T11:46:25;9.50;77.80
14097;DHT22;7125;48.106;11.544;2024-03-25T11:48:51;9.50;78.00
14097;DHT22;7125;48.106;11.544;2024-03-25T11:51:20;9.50;77.90
14097;DHT22;7125;48.106;11.544;2024-03-25T11:53:46;9.50;78.00
14097;DHT22;7125;48.106;11.544;2024-03-25T11:56:13;9.40;76.80
14097;DHT22;7125;48.106;11.544;2024-03-25T11:58:40;9.40;77.00
14097;DHT22;7125;48.106;11.544;2024-03-25T12:01:07;9.40;80.60
14097;DHT22;7125;48.106;11.544;2024-03-25T12:03:34;9.40;82.90
14097;DHT22;7125;48.106;11.544;2024-03-25T12:06:01;9.80;77.20
14097;DHT22;7125;48.106;11.544;2024-03-25T12:08:27;10.10;75.70
14097;DHT22;7125;48.106;11.544;2024-03-25T12:10:54;10.30;77.30
14097;DHT22;7125;48.106;11.544;2024-03-25T12:13:38;10.60;79.30
14097;DHT22;7125;48.106;11.544;2024-03-25T12:16:07;10.80;77.80
14097;DHT22;7125;48.106;11.544;2024-03-25T12:18:34;11.10;78.00
14097;DHT22;7125;48.106;11.544;2024-03-25T12:21:01;11.30;72.20
14097;DHT22;7125;48.106;11.544;2024-03-25T12:23:31;11.40;71.00
14097;DHT22;7125;48.106;11.544;2024-03-25T12:25:59;11.40;71.00
14097;DHT22;7125;48.106;11.544;2024-03-25T12:28:25;11.40;68.40
14097;DHT22;7125;48.106;11.544;2024-03-25T12:30:54;11.40;69.50
14097;DHT22;7125;48.106;11.544;2024-03-25T12:33:22;11.40;71.60
14097;DHT22;7125;48.106;11.544;2024-03-25T12:35:49;11.40;68.40
14097;DHT22;7125;48.106;11.544;2024-03-25T12:38:23;11.40;72.50
14097;DHT22;7125;48.106;11.544;2024-03-25T12:40:51;11.30;69.60
14097;DHT22;7125;48.106;11.544;2024-03-25T12:43:17;11.30;68.00
14097;DHT22;7125;48.106;11.544;2024-03-25T12:45:44;11.30;68.30
14097;DHT22;7125;48.106;11.544;2024-03-25T12:48:11;11.20;68.60
14097;DHT22;7125;48.106;11.544;2024-03-25T12:50:39;11.20;70.00
14097;DHT22;7125;48.106;11.544;2024-03-25T12:53:05;11.30;68.30
14097;DHT22;7125;48.106;11.544;2024-03-25T12:55:32;11.40;70.50
14097;DHT22;7125;48.106;11.544;2024-03-25T12:57:58;11.60;67.50
14097;DHT22;7125;48.106;11.544;2024-03-25T13:00:24;11.70;65.10
14097;DHT22;7125;48.106;11.544;2024-03-25T13:02:51;11.70;65.20
14097;DHT22;7125;48.106;11.544;2024-03-25T13:05:17;11.70;66.20
14097;DHT22;7125;48.106;11.544;2024-03-25T13:07:47;11.50;64.10
14097;DHT22;7125;48.106;11.544;2024-03-25T13:10:13;11.30;65.00
14097;DHT22;7125;48.106;11.544;2024-03-25T13:12:41;11.10;67.50
14097;DHT22;7125;48.106;11.544;2024-03-25T13:15:08;11.10;68.60
14097;DHT22;7125;48.106;11.544;2024-03-25T13:17:34;11.30;66.60
14097;DHT22;7125;48.106;11.544;2024-03-25T13:20:01;11.50;65.80
14097;DHT22;7125;48.106;11.544;2024-03-25T13:22:27;11.60;64.90
14097;DHT22;7125;48.106;11.544;2024-03-25T13:24:55;11.70;64.10
14097;DHT22;7125;48.106;11.544;2024-03-25T13:27:21;11.80;62.80
14097;DHT22;7125;48.106;11.544;2024-03-25T13:29:47;11.90;62.70
14097;DHT22;7125;48.106;11.544;2024-03-25T13:32:14;12.00;66.80
14097;DHT22;7125;48.106;11.544;2024-03-25T13:34:40;12.10;66.60
14097;DHT22;7125;48.106;11.544;2024-03-25T13:37:12;12.20;63.80
14097;DHT22;7125;48.106;11.544;2024-03-25T13:39:55;12.30;66.60
14097;DHT22;7125;48.106;11.544;2024-03-25T13:42:26;12.40;64.60
14097;DHT22;7125;48.106;11.544;2024-03-25T13:44:55;12.60;66.10
14097;DHT22;7125;48.106;11.544;2024-03-25T13:47:21;12.60;62.80
14097;DHT22;7125;48.106;11.544;2024-03-25T13:49:48;12.70;62.00
14097;DHT22;7125;48.106;11.544;2024-03-25T13:52:18;12.70;59.80
14097;DHT22;7125;48.106;11.544;2024-03-25T13:54:49;12.80;64.40
14097;DHT22;7125;48.106;11.544;2024-03-25T14:00:24;12.90;61.00
14097;DHT22;7125;48.106;11.544;2024-03-25T14:02:51;13.00;61.60
14097;DHT22;7125;48.106;11.544;2024-03-25T14:05:18;13.00;60.00
14097;DHT22;7125;48.106;11.544;2024-03-25T14:07:47;13.00;58.90
14097;DHT22;7125;48.106;11.544;2024-03-25T14:10:13;13.00;58.90
14097;DHT22;7125;48.106;11.544;2024-03-25T14:12:41;13.00;58.80
14097;DHT22;7125;48.106;11.544;2024-03-25T14:15:08;13.00;56.50
14097;DHT22;7125;48.106;11.544;2024-03-25T14:17:38;12.90;57.70
14097;DHT22;7125;48.106;11.544;2024-03-25T14:20:08;12.80;57.20
14097;DHT22;7125;48.106;11.544;2024-03-25T14:22:42;12.80;56.50
14097;DHT22;7125;48.106;11.544;2024-03-25T14:25:12;12.70;58.60
14097;DHT22;7125;48.106;11.544;2024-03-25T14:27:41;12.80;59.30
14097;DHT22;7125;48.106;11.544;2024-03-25T14:30:08;12.90;59.40
14097;DHT22;7125;48.106;11.544;2024-03-25T14:32:35;13.00;58.10
14097;DHT22;7125;48.106;11.544;2024-03-25T14:35:04;13.10;57.40
14097;DHT22;7125;48.106;11.544;2024-03-25T14:37:30;13.10;57.50
14097;DHT22;7125;48.106;11.544;2024-03-25T14:39:57;13.10;57.30
14097;DHT22;7125;48.106;11.544;2024-03-25T14:42:23;13.10;58.50
14097;DHT22;7125;48.106;11.544;2024-03-25T14:44:52;13.20;58.10
14097;DHT22;7125;48.106;11.544;2024-03-25T14:47:19;13.20;60.90
14097;DHT22;7125;48.106;11.544;2024-03-25T14:49:45;13.00;61.50
14097;DHT22;7125;48.106;11.544;2024-03-25T14:52:13;13.00;63.20
14097;DHT22;7125;48.106;11.544;2024-03-25T14:54:39;12.90;61.90
14097;DHT22;7125;48.106;11.544;2024-03-25T14:57:05;12.90;63.20
14097;DHT22;7125;48.106;11.544;2024-03-25T14:59:32;13.00;63.60
14097;DHT22;7125;48.106;11.544;2024-03-25T15:02:00;13.00;64.70
14097;DHT22;7125;48.106;11.544;2024-03-25T15:04:27;13.10;63.20
14097;DHT22;7125;48.106;11.544;2024-03-25T15:06:53;13.10;64.20
14097;DHT22;7125;48.106;11.544;2024-03-25T15:09:21;13.10;63.10
14097;DHT22;7125;48.106;11.544;2024-03-25T15:11:48;13.00;63.10
14097;DHT22;7125;48.106;11.544;2024-03-25T15:14:15;12.90;63.80
14097;DHT22;7125;48.106;11.544;2024-03-25T15:16:41;12.70;63.30
14097;DHT22;7125;48.106;11.544;2024-03-25T15:19:08;12.60;61.60
14097;DHT22;7125;48.106;11.544;2024-03-25T15:21:34;12.40;64.10
14097;DHT22;7125;48.106;11.544;2024-03-25T15:24:01;12.40;64.50
14097;DHT22;7125;48.106;11.544;2024-03-25T15:26:29;12.30;63.10
14097;DHT22;7125;48.106;11.544;2024-03-25T15:28:55;12.30;62.10
14097;DHT22;7125;48.106;11.544;2024-03-25T15:31:21;12.30;62.20
14097;DHT22;7125;48.106;11.544;2024-03-25T15:33:48;12.30;62.70
14097;DHT22;7125;48.106;11.544;2024-03-25T15:36:14;12.30;63.50
14097;DHT22;7125;48.106;11.544;2024-03-25T15:38:40;12.10;63.20
14097;DHT22;7125;48.106;11.544;2024-03-25T15:41:07;12.10;64.20
14097;DHT22;7125;48.106;11.544;2024-03-25T15:43:35;12.00;64.90
14097;DHT22;7125;48.106;11.544;2024-03-25T15:46:01;11.90;66.10
14097;DHT22;7125;48.106;11.544;2024-03-25T15:48:28;11.70;65.50
14097;DHT22;7125;48.106;11.544;2024-03-25T15:50:54;11.60;66.40